Time;durP1;ratioP1;P1;durP2;ratioP2;P2;SDS_P1;SDS_P2;PMS_P1;PMS_P2;Temp;Humidity;BMP_temperature;BMP_pressure;BME280_temperature;BME280_humidity;BME280_pressure;Samples;Min_cycle;Max_cycle;Signal;HPM_P1;HPM_P2
2022/08/01 00:01:08;;;;;;;15.20;8.70;;;;;;;-148.88;100.00;74903.91;4996012;28;20440;-86
2022/08/01 00:03:33;;;;;;;11.75;7.85;;;;;;;-148.88;100.00;74912.03;4996099;28;20026;-86
2022/08/01 00:05:59;;;;;;;11.65;7.65;;;;;;;-148.88;100.00;74910.00;4995992;28;20477;-86
2022/08/01 00:08:24;;;;;;;13.40;8.35;;;;;;;-148.88;100.00;74907.97;4996255;28;20026;-87
2022/08/01 00:10:49;;;;;;;12.20;7.70;;;;;;;-148.88;100.00;74912.03;4996273;28;20396;-85
2022/08/01 00:13:15;;;;;;;13.80;8.20;;;;;;;-148.88;100.00;74916.09;4995824;28;20053;-86
2022/08/01 00:15:40;;;;;;;15.18;7.72;;;;;;;-148.88;100.00;74918.13;4996033;28;20468;-86
2022/08/01 00:18:05;;;;;;;11.35;7.80;;;;;;;-148.88;100.00;74916.09;4996186;28;20030;-86
2022/08/01 00:20:31;;;;;;;12.20;7.57;;;;;;;-148.88;100.00;74924.22;4994559;28;20018;-86
2022/08/01 00:22:56;;;;;;;12.50;8.45;;;;;;;-148.88;100.00;74920.16;4995692;28;20030;-87
2022/08/01 00:25:21;;;;;;;13.23;8.23;;;;;;;-148.88;100.00;74928.28;4995666;28;20026;-86
2022/08/01 00:27:46;;;;;;;11.50;7.75;;;;;;;-148.88;100.00;74920.16;4995754;28;20030;-87
2022/08/01 00:30:12;;;;;;;11.93;8.13;;;;;;;-148.88;100.00;74920.16;4996433;28;20113;-87
2022/08/01 00:32:37;;;;;;;13.60;8.05;;;;;;;-148.88;100.00;74918.13;4995517;28;20026;-86
2022/08/01 00:35:03;;;;;;;12.20;8.05;;;;;;;-148.88;100.00;74928.28;4995569;28;20026;-86
2022/08/01 00:37:28;;;;;;;14.10;7.70;;;;;;;-148.88;100.00;74920.16;4995504;28;20026;-87
2022/08/01 00:39:53;;;;;;;14.05;8.35;;;;;;;-148.88;100.00;74936.41;4995358;28;20026;-86
2022/08/01 00:42:19;;;;;;;13.48;7.72;;;;;;;-148.88;100.00;74932.34;4994441;28;20515;-86
2022/08/01 00:47:19;;;;;;;12.18;7.60;;;;;;;-148.88;100.00;74940.47;5026271;23;20057;-75
2022/08/01 00:49:44;;;;;;;14.40;7.80;;;;;;;-148.88;100.00;74944.53;4995144;28;20030;-75
2022/08/01 00:52:10;;;;;;;12.32;8.23;;;;;;;-148.88;100.00;74946.53;4995134;28;20049;-76
2022/08/01 00:54:35;;;;;;;16.50;7.80;;;;;;;-148.88;100.00;74948.56;4995945;28;20033;-76
2022/08/01 00:57:02;;;;;;;12.95;7.72;;;;;;;-148.88;100.00;74942.47;4994919;28;20026;-77
2022/08/01 00:59:27;;;;;;;13.48;7.53;;;;;;;-148.88;100.00;74956.69;4994844;28;20105;-76
2022/08/01 01:01:53;;;;;;;11.40;7.28;;;;;;;-148.88;100.00;74952.63;4994760;28;20120;-76
2022/08/01 01:04:18;;;;;;;12.15;7.63;;;;;;;-148.88;100.00;74966.84;4994548;28;20137;-76
2022/08/01 01:06:57;;;;;;;18.23;8.18;;;;;;;-148.88;100.00;74954.66;4994578;28;20023;-76
2022/08/01 01:09:37;;;;;;;11.90;7.15;;;;;;;-148.88;100.00;74956.69;4994449;28;20077;-77
2022/08/01 01:12:29;;;;;;;11.15;7.40;;;;;;;-148.88;100.00;74948.56;4993309;28;20022;-76
2022/08/01 01:14:59;;;;;;;12.30;7.82;;;;;;;-148.88;100.00;74962.78;4993302;28;20022;-77
2022/08/01 01:17:32;;;;;;;13.95;7.13;;;;;;;-148.88;100.00;74970.91;4994859;28;20116;-77
2022/08/01 01:20:00;;;;;;;10.65;6.63;;;;;;;-148.88;100.00;74968.88;4993279;28;20022;-76
2022/08/01 01:23:01;;;;;;;9.75;6.07;;;;;;;-148.88;100.00;74981.06;4993731;28;20030;-77
2022/08/01 01:25:51;;;;;;;11.20;6.03;;;;;;;-148.88;100.00;74985.13;4996306;28;20034;-77
2022/08/01 01:28:33;;;;;;;10.63;6.25;;;;;;;-148.88;100.00;74974.97;5003107;28;20022;-79
2022/08/01 01:31:02;;;;;;;9.93;5.53;;;;;;;-148.88;100.00;74989.19;5000636;28;20468;-78
2022/08/01 01:33:31;;;;;;;11.15;5.50;;;;;;;-148.88;100.00;74989.19;5000501;28;20031;-79
2022/08/01 01:36:02;;;;;;;11.50;5.13;;;;;;;-148.88;100.00;74993.25;5000469;28;20125;-79
2022/08/01 01:38:33;;;;;;;8.80;5.53;;;;;;;-148.88;100.00;74993.25;5001208;28;20022;-79
2022/08/01 01:41:02;;;;;;;11.68;5.50;;;;;;;-148.88;100.00;74995.28;5000141;28;20069;-78
2022/08/01 01:43:29;;;;;;;7.55;5.00;;;;;;;-148.88;100.00;74989.19;5002955;28;20034;-79
2022/08/01 01:45:55;;;;;;;8.80;5.20;;;;;;;-148.88;100.00;74989.19;5002382;28;20030;-78
2022/08/01 01:48:23;;;;;;;7.28;4.65;;;;;;;-148.88;100.00;74993.25;4999290;28;20022;-78
2022/08/01 01:50:49;;;;;;;9.20;5.20;;;;;;;-148.88;100.00;74993.25;4999958;28;20030;-78
2022/08/01 01:53:19;;;;;;;9.43;5.53;;;;;;;-148.88;100.00;74993.25;5001150;28;20026;-80
2022/08/01 01:55:47;;;;;;;8.75;5.65;;;;;;;-148.88;100.00;74989.19;4999083;28;20022;-79
2022/08/01 01:58:14;;;;;;;9.07;5.53;;;;;;;-148.88;100.00;74997.31;5000594;28;20046;-78
2022/08/01 02:00:42;;;;;;;10.98;5.82;;;;;;;-148.88;100.00;74993.25;5000943;28;20038;-78
2022/08/01 02:03:10;;;;;;;12.70;6.45;;;;;;;-148.88;100.00;75007.47;4997982;28;20388;-77
2022/08/01 02:05:37;;;;;;;10.48;6.07;;;;;;;-148.88;100.00;74997.31;4999398;28;20065;-79
2022/08/01 02:08:04;;;;;;;9.27;6.07;;;;;;;-148.88;100.00;75009.50;4999333;28;20026;-78
2022/08/01 02:10:31;;;;;;;11.35;5.95;;;;;;;-148.88;100.00;75001.38;4999479;28;20026;-78
2022/08/01 02:12:59;;;;;;;13.85;5.85;;;;;;;-148.88;100.00;75009.50;4999688;28;20029;-78
2022/08/01 02:15:27;;;;;;;8.15;5.68;;;;;;;-148.88;100.00;75019.66;4999943;28;20033;-78
2022/08/01 02:17:55;;;;;;;10.60;5.40;;;;;;;-148.88;100.00;75015.59;4998650;28;20396;-78
2022/08/01 02:20:21;;;;;;;11.55;5.38;;;;;;;-148.88;100.00;75017.63;4999442;28;20028;-78
2022/08/01 02:22:51;;;;;;;7.35;4.88;;;;;;;-148.88;100.00;75021.69;5000725;28;20018;-78
2022/08/01 02:25:26;;;;;;;8.32;5.25;;;;;;;-148.88;100.00;75033.88;4999564;28;20443;-78
2022/08/01 02:28:03;;;;;;;9.07;5.03;;;;;;;-148.88;100.00;75037.94;4996602;28;20041;-78
2022/08/01 02:30:38;;;;;;;8.93;5.32;;;;;;;-148.88;100.00;75044.03;4996282;28;20094;-78
2022/08/01 02:33:12;;;;;;;8.60;5.22;;;;;;;-148.88;100.00;75048.09;4997761;28;20018;-78
2022/08/01 02:35:41;;;;;;;6.85;4.57;;;;;;;-148.88;100.00;75044.03;4997348;28;20101;-78
2022/08/01 02:38:11;;;;;;;8.18;4.63;;;;;;;-148.88;100.00;75050.13;4998577;28;20022;-77
2022/08/01 02:40:39;;;;;;;7.80;4.43;;;;;;;-148.88;100.00;75046.06;4995599;28;20399;-77
2022/08/01 02:43:08;;;;;;;6.32;4.07;;;;;;;-148.88;100.00;75054.19;4996958;28;20468;-78
2022/08/01 02:45:37;;;;;;;6.75;4.63;;;;;;;-148.88;100.00;75052.16;4994927;28;20117;-78
2022/08/01 02:48:11;;;;;;;7.38;4.55;;;;;;;-148.88;100.00;75046.06;4996824;28;20037;-78
2022/08/01 02:50:38;;;;;;;7.05;4.90;;;;;;;-148.88;100.00;75054.19;4996049;28;20023;-78
2022/08/01 02:53:06;;;;;;;7.90;4.97;;;;;;;-148.88;100.00;75058.25;4997490;28;20389;-77
2022/08/01 02:55:33;;;;;;;7.95;5.57;;;;;;;-148.88;100.00;75052.16;4995597;28;20022;-78
2022/08/01 02:58:00;;;;;;;7.35;5.05;;;;;;;-148.88;100.00;75046.06;4997004;28;20392;-78
2022/08/01 03:00:27;;;;;;;8.55;5.85;;;;;;;-148.88;100.00;75058.25;4995107;28;20042;-78
2022/08/01 03:02:54;;;;;;;7.13;4.95;;;;;;;-148.88;100.00;75039.97;4996177;28;20022;-78
2022/08/01 03:05:20;;;;;;;7.88;5.15;;;;;;;-148.88;100.00;75056.22;4995350;28;20129;-78
2022/08/01 03:07:46;;;;;;;10.02;5.93;;;;;;;-148.88;100.00;75066.38;4995931;28;20046;-78
2022/08/01 03:10:14;;;;;;;10.50;5.95;;;;;;;-148.88;100.00;75062.31;4995980;28;20549;-78
2022/08/01 03:12:40;;;;;;;10.43;6.38;;;;;;;-148.88;100.00;75064.34;4994351;28;20061;-78
2022/08/01 03:15:07;;;;;;;11.52;6.45;;;;;;;-148.88;100.00;75060.28;4996554;28;20037;-78
2022/08/01 03:17:36;;;;;;;11.73;6.80;;;;;;;-148.88;100.00;75062.31;4999129;28;20094;-78
2022/08/01 03:20:03;;;;;;;10.65;6.72;;;;;;;-148.88;100.00;75066.38;4997601;28;20026;-77
2022/08/01 03:22:30;;;;;;;11.13;7.03;;;;;;;-148.88;100.00;75066.38;4999618;28;20030;-78
2022/08/01 03:24:59;;;;;;;11.73;7.30;;;;;;;-148.88;100.00;75068.41;5000262;28;20077;-78
2022/08/01 03:27:25;;;;;;;13.20;7.38;;;;;;;-148.88;100.00;75066.38;4999643;28;20395;-78
2022/08/01 03:29:51;;;;;;;10.25;7.28;;;;;;;-148.88;100.00;75068.41;5000116;28;20400;-78
2022/08/01 03:32:19;;;;;;;12.23;7.72;;;;;;;-148.88;100.00;75062.31;5000498;28;20026;-78
2022/08/01 03:34:45;;;;;;;14.88;9.00;;;;;;;-148.88;100.00;75050.13;5000430;28;20026;-78
2022/08/01 03:37:34;;;;;;;20.10;10.25;;;;;;;-148.88;100.00;75058.25;4999777;28;20037;-78
2022/08/01 03:40:24;;;;;;;13.55;9.50;;;;;;;-148.88;100.00;75058.25;4999950;28;20492;-78
2022/08/01 03:42:58;;;;;;;13.25;9.38;;;;;;;-148.88;100.00;75062.31;4999902;28;20030;-78
2022/08/01 03:45:27;;;;;;;14.90;9.80;;;;;;;-148.88;100.00;75064.34;4998109;28;20104;-78
2022/08/01 03:47:58;;;;;;;15.85;10.15;;;;;;;-148.88;100.00;75060.28;5001417;28;20026;-77
2022/08/01 03:50:24;;;;;;;16.38;10.68;;;;;;;-148.88;100.00;75058.25;5002451;28;20053;-78
2022/08/01 03:52:52;;;;;;;21.83;11.43;;;;;;;-148.88;100.00;75060.28;5001748;28;20041;-78
2022/08/01 03:55:20;;;;;;;17.00;10.63;;;;;;;-148.88;100.00;75052.16;5002293;28;20439;-77
2022/08/01 03:57:47;;;;;;;16.58;10.60;;;;;;;-148.88;100.00;75058.25;5001112;28;20054;-78
2022/08/01 04:00:18;;;;;;;17.83;11.02;;;;;;;-148.88;100.00;75066.38;4999432;28;20045;-78
2022/08/01 04:02:47;;;;;;;18.55;10.02;;;;;;;-148.88;100.00;75062.31;4999614;28;20105;-78
2022/08/01 04:05:13;;;;;;;16.35;9.98;;;;;;;-148.88;100.00;75064.34;4998457;28;20097;-77
2022/08/01 04:07:39;;;;;;;14.52;8.93;;;;;;;-148.88;100.00;75066.38;4999038;28;20085;-78
2022/08/01 04:10:05;;;;;;;13.20;8.95;;;;;;;-148.88;100.00;75048.09;4999297;28;20022;-77
2022/08/01 04:12:32;;;;;;;15.50;9.13;;;;;;;-148.88;100.00;75062.31;4999050;28;20068;-78
2022/08/01 04:14:58;;;;;;;16.23;9.35;;;;;;;-148.88;100.00;75066.38;4997560;28;20033;-78
2022/08/01 04:17:23;;;;;;;14.20;9.10;;;;;;;-148.88;100.00;75070.44;4999503;28;20072;-78
2022/08/01 04:19:49;;;;;;;14.05;8.48;;;;;;;-148.88;100.00;75072.47;4998725;28;20030;-78
2022/08/01 04:22:15;;;;;;;14.18;8.77;;;;;;;-148.88;100.00;75064.34;4997672;28;20484;-78
2022/08/01 04:24:44;;;;;;;13.85;9.00;;;;;;;-148.88;100.00;75064.34;5000389;28;20038;-77
2022/08/01 04:27:14;;;;;;;13.35;8.75;;;;;;;-148.88;100.00;75064.34;4998845;28;20064;-78
2022/08/01 04:29:41;;;;;;;15.65;8.88;;;;;;;-148.88;100.00;75078.56;4998389;28;20070;-78
2022/08/01 04:32:11;;;;;;;17.40;9.80;;;;;;;-148.88;100.00;75082.63;4998888;28;20022;-78
2022/08/01 04:34:39;;;;;;;16.05;9.77;;;;;;;-148.88;100.00;75086.69;4997734;28;20034;-77
2022/08/01 04:37:09;;;;;;;19.05;9.98;;;;;;;-148.88;100.00;75090.72;4997567;28;20050;-77
2022/08/01 04:39:36;;;;;;;17.88;9.23;;;;;;;-148.88;100.00;75090.72;4997622;28;20037;-78
2022/08/01 04:42:04;;;;;;;14.43;9.25;;;;;;;-148.88;100.00;75090.72;4997331;28;20046;-78
2022/08/01 04:44:32;;;;;;;16.50;9.40;;;;;;;-148.88;100.00;75090.72;5000518;28;20117;-78
2022/08/01 04:47:02;;;;;;;15.68;10.02;;;;;;;-148.88;100.00;75094.81;4998622;28;20061;-77
2022/08/01 04:49:30;;;;;;;14.95;9.10;;;;;;;-148.88;100.00;75086.69;4997638;28;20026;-77
2022/08/01 04:52:02;;;;;;;18.38;10.35;;;;;;;-148.88;100.00;75090.72;4998785;28;20468;-78
2022/08/01 04:54:33;;;;;;;16.60;10.30;;;;;;;-148.88;100.00;75094.81;4999393;28;20405;-78
2022/08/01 04:56:59;;;;;;;18.10;10.27;;;;;;;-148.88;100.00;75100.88;4998357;28;20023;-78
2022/08/01 04:59:40;;;;;;;16.27;10.43;;;;;;;-148.88;100.00;75100.88;4998304;28;20025;-77
2022/08/01 05:02:28;;;;;;;15.88;10.15;;;;;;;-148.88;100.00;75094.81;4997876;28;20396;-78
2022/08/01 05:04:54;;;;;;;20.17;10.95;;;;;;;-148.88;100.00;75100.88;4998474;28;20031;-78
2022/08/01 05:07:20;;;;;;;16.55;10.20;;;;;;;-148.88;100.00;75102.91;4998271;28;20030;-78
2022/08/01 05:09:46;;;;;;;15.82;10.07;;;;;;;-148.88;100.00;75098.84;5000791;28;20064;-78
2022/08/01 05:12:12;;;;;;;17.08;10.82;;;;;;;-148.88;100.00;75094.81;4999244;28;20022;-77
2022/08/01 05:14:38;;;;;;;15.55;10.00;;;;;;;-148.88;100.00;75094.81;5001408;28;20413;-78
2022/08/01 05:17:06;;;;;;;16.40;9.60;;;;;;;-148.88;100.00;75090.72;4999227;28;20030;-77
2022/08/01 05:19:32;;;;;;;15.82;10.23;;;;;;;-148.88;100.00;75102.91;4996828;28;20026;-77
2022/08/01 05:21:58;;;;;;;16.67;10.52;;;;;;;-148.88;100.00;75100.88;5000358;28;20018;-78
2022/08/01 05:24:23;;;;;;;15.93;10.45;;;;;;;-148.88;100.00;75098.84;4999655;28;20480;-78
2022/08/01 05:26:49;;;;;;;16.17;10.40;;;;;;;-148.88;100.00;75086.69;4998947;28;20030;-78
2022/08/01 05:29:15;;;;;;;15.85;9.95;;;;;;;-148.88;100.00;75096.81;5000134;28;20030;-78
2022/08/01 05:31:40;;;;;;;13.65;9.23;;;;;;;-148.88;100.00;75100.88;4998054;28;20502;-78
2022/08/01 05:34:06;;;;;;;13.77;9.27;;;;;;;-148.88;100.00;75094.81;4999100;28;20049;-78
2022/08/01 05:36:32;;;;;;;15.00;9.43;;;;;;;-148.88;100.00;75096.81;4998246;28;20034;-78
2022/08/01 05:38:57;;;;;;;16.27;10.15;;;;;;;-148.88;100.00;75090.72;4998012;28;20472;-78
2022/08/01 05:41:23;;;;;;;14.20;9.82;;;;;;;-148.88;100.00;75090.72;4998221;28;20030;-77
2022/08/01 05:43:48;;;;;;;17.90;9.82;;;;;;;-148.88;100.00;75094.81;4998294;28;20034;-78
2022/08/01 05:46:13;;;;;;;16.52;9.60;;;;;;;-148.88;100.00;75090.72;4998489;28;20034;-78
2022/08/01 05:48:38;;;;;;;15.02;8.40;;;;;;;-148.88;100.00;75086.69;4996959;28;20022;-77
2022/08/01 05:51:04;;;;;;;12.43;8.45;;;;;;;-148.88;100.00;75086.69;4998176;28;20022;-78
2022/08/01 05:53:29;;;;;;;15.60;9.90;;;;;;;-148.88;100.00;75074.50;4998868;28;20087;-77
2022/08/01 05:55:55;;;;;;;11.90;8.50;;;;;;;-148.88;100.00;75078.56;4998953;28;20029;-78
2022/08/01 05:58:20;;;;;;;14.77;8.88;;;;;;;-148.88;100.00;75090.72;4998763;28;20030;-78
2022/08/01 06:00:46;;;;;;;13.55;8.48;;;;;;;-148.88;100.00;75090.72;4999432;28;20033;-78
2022/08/01 06:03:11;;;;;;;13.32;8.05;;;;;;;-148.88;100.00;75092.78;4999475;28;20029;-77
2022/08/01 06:05:36;;;;;;;12.05;7.60;;;;;;;-148.88;100.00;75102.91;4998628;28;20472;-78
2022/08/01 06:08:02;;;;;;;10.45;7.50;;;;;;;-148.88;100.00;75111.03;5000153;28;20109;-78
2022/08/01 06:10:27;;;;;;;9.73;6.82;;;;;;;-148.88;100.00;75121.19;4998691;28;20447;-78
2022/08/01 06:12:53;;;;;;;9.52;6.90;;;;;;;-148.88;100.00;75123.22;5000461;28;20033;-78
2022/08/01 06:15:18;;;;;;;9.40;5.43;;;;;;;-148.88;100.00;75135.41;5000487;28;20487;-78
2022/08/01 06:17:43;;;;;;;10.02;5.38;;;;;;;-148.88;100.00;75149.63;4999599;28;20053;-78
2022/08/01 06:20:09;;;;;;;8.38;5.30;;;;;;;-148.88;100.00;75139.47;4998121;28;20500;-77
2022/08/01 06:22:34;;;;;;;7.32;4.57;;;;;;;-148.88;100.00;75147.59;4998101;28;20019;-78
2022/08/01 06:25:00;;;;;;;7.78;4.97;;;;;;;-148.88;100.00;75151.66;4999521;28;20516;-78
2022/08/01 06:27:25;;;;;;;8.40;5.00;;;;;;;-148.88;100.00;75147.59;4998918;28;20022;-78
2022/08/01 06:29:53;;;;;;;9.35;4.63;;;;;;;-148.88;100.00;75155.72;4998400;28;20030;-77
2022/08/01 06:32:19;;;;;;;7.75;4.93;;;;;;;-148.88;100.00;75147.59;4999401;28;20472;-78
2022/08/01 06:34:44;;;;;;;5.45;4.38;;;;;;;-148.88;100.00;75155.72;4997455;28;20033;-78
2022/08/01 06:37:09;;;;;;;8.55;5.00;;;;;;;-148.88;100.00;75147.59;4996134;28;20483;-78
2022/08/01 06:39:34;;;;;;;11.57;5.00;;;;;;;-148.88;100.00;75141.50;4996037;28;20053;-78
2022/08/01 06:42:00;;;;;;;7.07;4.95;;;;;;;-148.88;100.00;75139.47;4996797;28;20383;-77
2022/08/01 06:44:25;;;;;;;6.75;4.78;;;;;;;-148.88;100.00;75139.47;4996429;28;20098;-78
2022/08/01 06:46:50;;;;;;;6.80;4.85;;;;;;;-148.88;100.00;75143.53;4996376;28;20045;-78
2022/08/01 06:49:15;;;;;;;8.13;4.45;;;;;;;-148.88;100.00;75123.22;4996022;28;20029;-78
2022/08/01 06:51:41;;;;;;;7.20;4.90;;;;;;;-148.88;100.00;75117.13;5000733;28;20022;-78
2022/08/01 06:54:06;;;;;;;7.75;4.38;;;;;;;-148.88;100.00;75121.19;5001567;28;20041;-78
2022/08/01 06:56:31;;;;;;;5.60;4.50;;;;;;;-148.88;100.00;75117.13;5000511;28;20113;-78
2022/08/01 06:59:00;;;;;;;5.97;4.20;;;;;;;-148.88;100.00;75119.16;5001410;28;20027;-77
2022/08/01 07:01:29;;;;;;;5.60;4.20;;;;;;;-148.88;100.00;75115.09;5001754;28;20022;-77
2022/08/01 07:03:54;;;;;;;6.20;3.85;;;;;;;-148.88;100.00;75111.03;5002113;28;20026;-78
2022/08/01 07:06:23;;;;;;;5.55;3.92;;;;;;;-148.88;100.00;75111.03;5001764;28;20496;-78
2022/08/01 07:08:48;;;;;;;6.07;3.95;;;;;;;-148.88;100.00;75102.91;5002539;28;20028;-78
2022/08/01 07:11:14;;;;;;;5.03;3.40;;;;;;;-148.88;100.00;75088.72;5002311;28;20054;-78
2022/08/01 07:13:39;;;;;;;5.72;3.83;;;;;;;-148.88;100.00;75068.41;5001544;28;20431;-78
2022/08/01 07:16:04;;;;;;;6.47;3.78;;;;;;;-148.88;100.00;75074.50;5002582;28;20022;-78
2022/08/01 07:18:29;;;;;;;7.82;3.85;;;;;;;-148.88;100.00;75074.50;5002655;28;20026;-78
2022/08/01 07:20:55;;;;;;;6.57;3.95;;;;;;;-148.88;100.00;75068.41;5003003;28;20026;-77
2022/08/01 07:23:20;;;;;;;6.00;3.85;;;;;;;-148.88;100.00;75062.31;5001418;28;20042;-78
2022/08/01 07:25:46;;;;;;;4.70;3.40;;;;;;;-148.88;100.00;75062.31;5001313;28;20029;-78
2022/08/01 07:28:11;;;;;;;5.85;3.58;;;;;;;-148.88;100.00;75062.31;5000685;28;20030;-78
2022/08/01 07:30:36;;;;;;;4.82;3.55;;;;;;;-148.88;100.00;75064.34;5002953;28;20053;-78
2022/08/01 07:33:03;;;;;;;4.70;3.75;;;;;;;-148.88;100.00;75058.25;5002320;28;20082;-78
2022/08/01 07:35:29;;;;;;;4.45;3.63;;;;;;;-148.88;100.00;75050.13;5001619;28;20492;-78
2022/08/01 07:37:54;;;;;;;7.80;3.65;;;;;;;-148.88;100.00;75062.31;5001282;28;20026;-77
2022/08/01 07:40:19;;;;;;;7.28;3.25;;;;;;;-148.88;100.00;75072.47;5000014;28;20491;-78
2022/08/01 07:42:45;;;;;;;5.78;3.05;;;;;;;-148.88;100.00;75078.56;5001153;28;20022;-77
2022/08/01 07:45:12;;;;;;;6.88;3.42;;;;;;;-148.88;100.00;75066.38;5001708;28;20462;-77
2022/08/01 07:47:37;;;;;;;5.10;3.30;;;;;;;-148.88;100.00;75060.28;5002949;28;20542;-77
2022/08/01 07:50:05;;;;;;;5.35;3.50;;;;;;;-148.88;100.00;75072.47;5001461;28;20034;-78
2022/08/01 07:52:30;;;;;;;5.95;3.08;;;;;;;-148.88;100.00;75062.31;5001819;28;20562;-77
2022/08/01 07:54:56;;;;;;;4.82;3.40;;;;;;;-148.88;100.00;75050.13;5001708;28;20061;-78
2022/08/01 07:57:22;;;;;;;4.07;2.90;;;;;;;-148.88;100.00;75054.19;5001656;28;20050;-78
2022/08/01 07:59:48;;;;;;;6.32;3.38;;;;;;;-148.88;100.00;75066.38;5001583;28;20033;-77
2022/08/01 08:02:13;;;;;;;4.20;3.20;;;;;;;-148.88;100.00;75072.47;5000635;28;20022;-77
2022/08/01 08:04:39;;;;;;;4.50;3.05;;;;;;;-148.88;100.00;75068.41;5000668;28;20041;-78
2022/08/01 08:07:04;;;;;;;9.32;3.53;;;;;;;-148.88;100.00;75060.28;4999333;28;20065;-78
2022/08/01 08:09:29;;;;;;;5.43;2.92;;;;;;;-148.88;100.00;75052.16;5000854;28;20369;-78
2022/08/01 08:11:55;;;;;;;4.93;2.90;;;;;;;-148.88;100.00;75056.22;5002609;28;20022;-78
2022/08/01 08:14:22;;;;;;;6.68;3.00;;;;;;;-148.88;100.00;75066.38;4999563;28;20098;-78
2022/08/01 08:16:47;;;;;;;6.53;3.03;;;;;;;-148.88;100.00;75111.03;4999779;28;20027;-77
2022/08/01 08:19:13;;;;;;;4.28;2.60;;;;;;;-148.88;100.00;75123.22;4999625;28;20105;-77
2022/08/01 08:21:38;;;;;;;3.38;2.38;;;;;;;-148.88;100.00;75147.59;5000163;28;20018;-77
2022/08/01 08:24:19;;;;;;;4.20;2.08;;;;;;;-148.88;100.00;75149.63;5001665;28;20105;-77
2022/08/01 08:26:44;;;;;;;4.25;2.10;;;;;;;-148.88;100.00;75159.78;5002424;28;20029;-77
2022/08/01 08:29:10;;;;;;;3.53;2.10;;;;;;;-148.88;100.00;75161.81;5002855;28;20030;-77
2022/08/01 08:31:35;;;;;;;4.03;1.92;;;;;;;-148.88;100.00;75145.56;5001877;28;20050;-78
2022/08/01 08:34:01;;;;;;;3.67;1.95;;;;;;;-148.88;100.00;75131.34;4999410;28;20026;-78
2022/08/01 08:36:26;;;;;;;2.42;1.60;;;;;;;-148.88;100.00;75109.00;4999904;28;20026;-77
2022/08/01 08:38:51;;;;;;;3.03;1.73;;;;;;;-148.88;100.00;75090.72;5000280;28;20026;-78
2022/08/01 08:41:17;;;;;;;5.63;1.38;;;;;;;-148.88;100.00;75086.69;4999354;28;20045;-78
2022/08/01 08:43:43;;;;;;;2.10;1.27;;;;;;;-148.88;98.79;75070.44;5001328;28;20022;-78
2022/08/01 08:46:08;;;;;;;3.42;1.65;;;;;;;-148.88;97.57;75050.13;5000552;28;20041;-78
2022/08/01 08:48:37;;;;;;;3.08;1.10;;;;;;;-148.88;97.00;75048.09;5001558;28;20030;-78
2022/08/01 08:51:02;;;;;;;3.20;1.70;;;;;;;-148.88;98.18;75037.94;5002564;28;20128;-78
2022/08/01 08:53:31;;;;;;;3.17;1.73;;;;;;;-148.88;98.81;75015.59;5000560;28;20027;-77
2022/08/01 08:55:57;;;;;;;2.80;1.90;;;;;;;-148.88;96.79;74993.25;5000585;28;20058;-78
2022/08/01 08:58:26;;;;;;;3.33;1.83;;;;;;;-148.88;97.71;74985.13;5000268;28;20054;-78
2022/08/01 09:00:53;;;;;;;2.97;1.55;;;;;;;-148.88;95.79;74993.25;5000510;28;20042;-78
2022/08/01 09:03:18;;;;;;;2.60;1.50;;;;;;;-148.88;93.40;75005.44;5000679;28;20030;-77
2022/08/01 09:05:44;;;;;;;2.08;1.30;;;;;;;-148.88;94.52;74989.19;5000761;28;20037;-78
2022/08/01 09:08:09;;;;;;;3.15;1.67;;;;;;;-148.88;91.85;75025.75;5000284;28;20076;-78
2022/08/01 09:10:35;;;;;;;3.70;1.35;;;;;;;-148.88;91.96;75001.38;4999491;28;20034;-77
2022/08/01 09:13:10;;;;;;;2.38;1.40;;;;;;;-148.88;90.81;74964.81;5000538;28;20065;-78
2022/08/01 09:15:47;;;;;;;2.15;1.45;;;;;;;-148.88;92.31;74946.53;5000120;28;20120;-78
2022/08/01 09:18:35;;;;;;;2.45;1.65;;;;;;;-148.88;89.67;74936.41;5001017;28;20500;-77
2022/08/01 09:21:06;;;;;;;2.72;1.17;;;;;;;-148.88;89.99;74936.41;5001349;28;20038;-78
2022/08/01 09:23:39;;;;;;;2.53;0.98;;;;;;;-148.88;88.92;74981.06;5000187;28;20018;-79
2022/08/01 09:26:05;;;;;;;1.70;0.90;;;;;;;-148.88;87.99;74989.19;5000469;28;20380;-78
2022/08/01 09:28:32;;;;;;;3.70;1.42;;;;;;;-148.88;88.04;74948.56;5000812;28;20091;-78
2022/08/01 09:30:58;;;;;;;2.45;1.23;;;;;;;-148.88;88.20;74891.72;5001399;28;20022;-78
2022/08/01 09:33:24;;;;;;;1.52;0.90;;;;;;;-148.88;86.00;74859.22;5000790;28;20380;-78
2022/08/01 09:35:57;;;;;;;2.88;1.23;;;;;;;-148.88;85.76;74875.47;5000452;28;20019;-77
2022/08/01 09:38:26;;;;;;;2.42;1.25;;;;;;;-148.88;86.72;74899.84;4998827;28;20050;-77
2022/08/01 09:40:59;;;;;;;4.63;1.40;;;;;;;-148.88;89.00;74934.38;4999715;28;20511;-77
2022/08/01 09:43:27;;;;;;;4.60;1.90;;;;;;;-148.88;89.43;74960.75;5001479;28;20030;-78
2022/08/01 09:45:52;;;;;;;5.13;1.70;;;;;;;-148.88;89.40;74932.34;5000705;28;20069;-78
2022/08/01 09:48:18;;;;;;;3.20;1.60;;;;;;;-148.88;88.75;74905.94;5001722;28;20045;-78
2022/08/01 09:50:47;;;;;;;3.67;1.50;;;;;;;-148.88;83.35;74881.56;5000919;28;20076;-79
2022/08/01 09:53:13;;;;;;;2.75;1.17;;;;;;;-148.88;85.36;74901.88;5002617;28;20029;-78
2022/08/01 09:55:39;;;;;;;2.55;1.30;;;;;;;-148.88;83.22;74914.06;5003739;28;20050;-78
2022/08/01 09:58:05;;;;;;;3.75;1.58;;;;;;;-148.88;83.74;74948.56;5003425;28;20105;-79
2022/08/01 10:00:32;;;;;;;2.80;1.42;;;;;;;-148.88;84.16;74954.66;5002646;28;20060;-78
2022/08/01 10:02:57;;;;;;;3.33;1.73;;;;;;;-148.88;83.42;74930.31;5000654;28;20030;-78
2022/08/01 10:05:34;;;;;;;2.70;1.40;;;;;;;-148.88;84.21;74924.22;5002626;28;20030;-78
2022/08/01 10:08:03;;;;;;;4.60;1.67;;;;;;;-148.88;82.97;74924.22;5002768;28;20033;-78
2022/08/01 10:10:29;;;;;;;2.55;1.58;;;;;;;-148.88;83.50;74881.56;5002379;28;20023;-78
2022/08/01 10:12:57;;;;;;;4.15;1.65;;;;;;;-148.88;82.69;74877.50;5000987;28;20022;-78
2022/08/01 10:15:23;;;;;;;5.05;1.73;;;;;;;-148.88;85.00;74910.00;4998167;28;20057;-77
2022/08/01 10:17:55;;;;;;;3.78;2.00;;;;;;;-148.88;85.09;74938.44;5000166;28;20049;-78
2022/08/01 10:20:26;;;;;;;5.28;2.03;;;;;;;-148.88;83.82;74899.84;5000708;28;20038;-77
2022/08/01 10:22:53;;;;;;;5.30;1.80;;;;;;;-148.88;81.91;74928.28;4999582;28;20468;-78
2022/08/01 10:25:20;;;;;;;2.47;1.48;;;;;;;-148.88;83.21;74924.22;5001464;28;20030;-78
2022/08/01 10:27:48;;;;;;;3.63;2.10;;;;;;;-148.88;83.03;74916.09;5000940;28;20037;-78
2022/08/01 10:30:14;;;;;;;3.72;1.98;;;;;;;-148.88;86.91;74932.34;5001794;28;20026;-78
2022/08/01 10:32:42;;;;;;;3.72;2.08;;;;;;;-148.88;84.47;74932.34;5001824;28;20041;-78
2022/08/01 10:35:08;;;;;;;3.13;1.80;;;;;;;-148.88;85.56;74989.19;5001353;28;20026;-78
2022/08/01 10:37:35;;;;;;;3.10;2.35;;;;;;;-148.88;87.23;75013.56;5003055;28;20034;-78
2022/08/01 10:40:01;;;;;;;5.97;3.25;;;;;;;-148.88;88.03;75001.38;5002788;28;20034;-78
2022/08/01 10:42:27;;;;;;;3.80;2.65;;;;;;;-148.88;87.96;75001.38;5002892;28;20105;-78
2022/08/01 10:44:54;;;;;;;6.97;2.75;;;;;;;-148.88;87.73;74993.25;5001409;28;20030;-78
2022/08/01 10:47:38;;;;;;;4.85;2.85;;;;;;;-148.88;84.93;74962.78;5003459;28;20027;-78
2022/08/01 10:50:29;;;;;;;5.60;3.20;;;;;;;-148.88;84.82;74968.88;5002842;28;20039;-77
2022/08/01 10:53:11;;;;;;;5.82;3.30;;;;;;;-148.88;86.39;74944.53;4997338;28;20050;-77
2022/08/01 10:55:55;;;;;;;6.05;3.40;;;;;;;-148.88;86.91;74901.88;4998813;28;20037;-77
2022/08/01 10:58:38;;;;;;;4.93;2.97;;;;;;;-148.88;84.03;74871.41;4999915;28;20038;-77
2022/08/01 11:01:15;;;;;;;4.53;2.70;;;;;;;-148.88;81.22;74859.22;5000025;28;20022;-77
2022/08/01 11:03:42;;;;;;;4.22;2.60;;;;;;;-148.88;80.91;74912.03;5001129;28;20051;-77
2022/08/01 11:06:16;;;;;;;4.35;2.78;;;;;;;-148.88;80.63;74912.03;5001317;28;20034;-78
2022/08/01 11:08:50;;;;;;;5.03;3.30;;;;;;;-148.88;81.82;74944.53;5002657;28;20065;-77
2022/08/01 11:11:15;;;;;;;4.45;3.17;;;;;;;-148.88;81.06;74936.41;5000675;28;20041;-78
2022/08/01 11:14:12;;;;;;;3.78;2.47;;;;;;;-148.88;84.14;74940.47;5002557;28;20027;-78